sensor_id;sensor_type;location;lat;lon;timestamp;P1;durP1;ratioP1;P2;durP2;ratioP2
17961;SDS011;9106;52.438;13.364;2022-07-23T00:00:36;8.82;;;5.22;;
17961;SDS011;9106;52.438;13.364;2022-07-23T00:05:41;7.50;;;4.38;;
17961;SDS011;9106;52.438;13.364;2022-07-23T00:10:46;7.32;;;5.00;;
17961;SDS011;9106;52.438;13.364;2022-07-23T00:15:51;8.05;;;4.75;;
17961;SDS011;9106;52.438;13.364;2022-07-23T00:20:54;8.52;;;4.57;;
17961;SDS011;9106;52.438;13.364;2022-07-23T00:25:56;10.38;;;4.97;;
17961;SDS011;9106;52.438;13.364;2022-07-23T00:31:00;7.93;;;4.95;;
17961;SDS011;9106;52.438;13.364;2022-07-23T00:36:06;8.35;;;4.65;;
17961;SDS011;9106;52.438;13.364;2022-07-23T00:41:08;6.65;;;4.50;;
17961;SDS011;9106;52.438;13.364;2022-07-23T00:46:12;6.13;;;4.50;;
17961;SDS011;9106;52.438;13.364;2022-07-23T00:51:15;7.95;;;4.75;;
17961;SDS011;9106;52.438;13.364;2022-07-23T00:56:18;9.43;;;5.13;;
17961;SDS011;9106;52.438;13.364;2022-07-23T01:01:22;6.13;;;4.50;;
17961;SDS011;9106;52.438;13.364;2022-07-23T01:06:25;10.13;;;4.95;;
17961;SDS011;9106;52.438;13.364;2022-07-23T01:11:29;5.88;;;4.15;;
17961;SDS011;9106;52.438;13.364;2022-07-23T01:16:33;8.85;;;4.80;;
17961;SDS011;9106;52.438;13.364;2022-07-23T01:21:37;10.32;;;4.90;;
17961;SDS011;9106;52.438;13.364;2022-07-23T01:26:42;8.82;;;4.97;;
17961;SDS011;9106;52.438;13.364;2022-07-23T01:31:45;7.85;;;4.65;;
17961;SDS011;9106;52.438;13.364;2022-07-23T01:36:47;10.73;;;4.90;;
17961;SDS011;9106;52.438;13.364;2022-07-23T01:41:52;9.95;;;5.03;;
17961;SDS011;9106;52.438;13.364;2022-07-23T01:46:55;9.20;;;4.93;;
17961;SDS011;9106;52.438;13.364;2022-07-23T01:51:57;7.65;;;4.90;;
17961;SDS011;9106;52.438;13.364;2022-07-23T01:57:04;8.30;;;5.28;;
17961;SDS011;9106;52.438;13.364;2022-07-23T02:02:13;11.35;;;5.25;;
17961;SDS011;9106;52.438;13.364;2022-07-23T02:07:16;7.78;;;4.90;;
17961;SDS011;9106;52.438;13.364;2022-07-23T02:12:20;7.88;;;4.63;;
17961;SDS011;9106;52.438;13.364;2022-07-23T02:17:22;7.53;;;4.57;;
17961;SDS011;9106;52.438;13.364;2022-07-23T02:22:25;8.10;;;5.40;;
17961;SDS011;9106;52.438;13.364;2022-07-23T02:27:29;8.77;;;5.20;;
17961;SDS011;9106;52.438;13.364;2022-07-23T02:32:31;7.65;;;4.88;;
17961;SDS011;9106;52.438;13.364;2022-07-23T02:37:34;8.02;;;4.95;;
17961;SDS011;9106;52.438;13.364;2022-07-23T02:42:38;9.55;;;5.78;;
17961;SDS011;9106;52.438;13.364;2022-07-23T02:47:41;8.80;;;5.15;;
17961;SDS011;9106;52.438;13.364;2022-07-23T02:52:44;9.07;;;5.25;;
17961;SDS011;9106;52.438;13.364;2022-07-23T02:57:48;8.60;;;4.85;;
17961;SDS011;9106;52.438;13.364;2022-07-23T03:02:50;8.75;;;4.65;;
17961;SDS011;9106;52.438;13.364;2022-07-23T03:07:53;7.25;;;4.78;;
17961;SDS011;9106;52.438;13.364;2022-07-23T03:12:57;8.30;;;4.78;;
17961;SDS011;9106;52.438;13.364;2022-07-23T03:18:00;8.00;;;4.85;;
17961;SDS011;9106;52.438;13.364;2022-07-23T03:23:02;7.53;;;5.18;;
17961;SDS011;9106;52.438;13.364;2022-07-23T03:28:06;9.52;;;5.10;;
17961;SDS011;9106;52.438;13.364;2022-07-23T03:33:09;9.00;;;4.85;;
17961;SDS011;9106;52.438;13.364;2022-07-23T03:38:11;8.65;;;4.55;;
17961;SDS011;9106;52.438;13.364;2022-07-23T03:43:16;9.75;;;4.75;;
17961;SDS011;9106;52.438;13.364;2022-07-23T03:48:18;8.30;;;4.63;;
17961;SDS011;9106;52.438;13.364;2022-07-23T03:53:21;8.43;;;4.82;;
17961;SDS011;9106;52.438;13.364;2022-07-23T03:58:25;9.57;;;3.78;;
17961;SDS011;9106;52.438;13.364;2022-07-23T04:03:28;11.00;;;4.03;;
17961;SDS011;9106;52.438;13.364;2022-07-23T04:08:30;7.93;;;4.05;;
17961;SDS011;9106;52.438;13.364;2022-07-23T04:13:34;6.30;;;3.28;;
17961;SDS011;9106;52.438;13.364;2022-07-23T04:18:37;5.35;;;3.03;;
17961;SDS011;9106;52.438;13.364;2022-07-23T04:23:40;6.85;;;2.80;;
17961;SDS011;9106;52.438;13.364;2022-07-23T04:28:46;5.13;;;2.38;;
17961;SDS011;9106;52.438;13.364;2022-07-23T04:33:48;6.85;;;2.75;;
17961;SDS011;9106;52.438;13.364;2022-07-23T04:38:51;6.63;;;2.83;;
17961;SDS011;9106;52.438;13.364;2022-07-23T04:43:55;4.43;;;2.95;;
17961;SDS011;9106;52.438;13.364;2022-07-23T04:48:57;9.70;;;2.85;;
17961;SDS011;9106;52.438;13.364;2022-07-23T04:54:01;5.63;;;3.20;;
17961;SDS011;9106;52.438;13.364;2022-07-23T04:59:05;5.90;;;2.88;;
17961;SDS011;9106;52.438;13.364;2022-07-23T05:04:07;5.93;;;2.97;;
17961;SDS011;9106;52.438;13.364;2022-07-23T05:09:10;7.00;;;2.75;;
17961;SDS011;9106;52.438;13.364;2022-07-23T05:14:14;8.05;;;2.53;;
17961;SDS011;9106;52.438;13.364;2022-07-23T05:19:17;5.78;;;2.53;;
17961;SDS011;9106;52.438;13.364;2022-07-23T05:24:21;7.03;;;2.53;;
17961;SDS011;9106;52.438;13.364;2022-07-23T05:29:26;5.35;;;2.60;;
17961;SDS011;9106;52.438;13.364;2022-07-23T05:34:29;4.63;;;2.63;;
17961;SDS011;9106;52.438;13.364;2022-07-23T05:39:32;3.63;;;2.35;;
17961;SDS011;9106;52.438;13.364;2022-07-23T05:44:36;5.07;;;2.67;;
17961;SDS011;9106;52.438;13.364;2022-07-23T05:49:38;5.82;;;2.88;;
17961;SDS011;9106;52.438;13.364;2022-07-23T05:54:41;4.35;;;2.63;;
17961;SDS011;9106;52.438;13.364;2022-07-23T05:59:45;6.15;;;2.75;;
17961;SDS011;9106;52.438;13.364;2022-07-23T06:04:49;5.18;;;3.22;;
17961;SDS011;9106;52.438;13.364;2022-07-23T06:09:52;5.65;;;3.08;;
17961;SDS011;9106;52.438;13.364;2022-07-23T06:14:56;6.32;;;2.85;;
17961;SDS011;9106;52.438;13.364;2022-07-23T06:19:58;4.88;;;2.70;;
17961;SDS011;9106;52.438;13.364;2022-07-23T06:25:01;8.38;;;3.13;;
17961;SDS011;9106;52.438;13.364;2022-07-23T06:30:06;5.63;;;3.03;;
17961;SDS011;9106;52.438;13.364;2022-07-23T06:35:09;7.30;;;3.45;;
17961;SDS011;9106;52.438;13.364;2022-07-23T06:40:12;5.18;;;3.33;;
17961;SDS011;9106;52.438;13.364;2022-07-23T06:45:16;6.40;;;3.50;;
17961;SDS011;9106;52.438;13.364;2022-07-23T06:50:20;7.88;;;3.40;;
17961;SDS011;9106;52.438;13.364;2022-07-23T06:55:22;13.27;;;3.10;;
17961;SDS011;9106;52.438;13.364;2022-07-23T07:00:26;5.70;;;3.58;;
17961;SDS011;9106;52.438;13.364;2022-07-23T07:05:29;9.82;;;4.10;;
17961;SDS011;9106;52.438;13.364;2022-07-23T07:10:31;5.63;;;3.50;;
17961;SDS011;9106;52.438;13.364;2022-07-23T07:15:35;8.85;;;3.75;;
17961;SDS011;9106;52.438;13.364;2022-07-23T07:20:38;8.63;;;3.75;;
17961;SDS011;9106;52.438;13.364;2022-07-23T07:25:41;9.82;;;4.60;;
17961;SDS011;9106;52.438;13.364;2022-07-23T07:30:45;7.90;;;4.38;;
17961;SDS011;9106;52.438;13.364;2022-07-23T07:35:47;10.05;;;4.95;;
17961;SDS011;9106;52.438;13.364;2022-07-23T07:40:50;10.95;;;4.85;;
17961;SDS011;9106;52.438;13.364;2022-07-23T07:45:54;13.82;;;4.88;;
17961;SDS011;9106;52.438;13.364;2022-07-23T07:50:56;9.50;;;4.75;;
17961;SDS011;9106;52.438;13.364;2022-07-23T07:56:00;10.05;;;4.88;;
17961;SDS011;9106;52.438;13.364;2022-07-23T08:01:11;12.30;;;5.10;;
17961;SDS011;9106;52.438;13.364;2022-07-23T08:06:14;7.30;;;4.95;;
17961;SDS011;9106;52.438;13.364;2022-07-23T08:11:17;8.73;;;5.15;;
17961;SDS011;9106;52.438;13.364;2022-07-23T08:16:21;12.10;;;4.60;;
17961;SDS011;9106;52.438;13.364;2022-07-23T08:21:24;11.82;;;5.10;;
17961;SDS011;9106;52.438;13.364;2022-07-23T08:26:27;13.55;;;5.60;;
17961;SDS011;9106;52.438;13.364;2022-07-23T08:31:31;15.48;;;5.65;;
17961;SDS011;9106;52.438;13.364;2022-07-23T08:36:34;9.35;;;5.10;;
17961;SDS011;9106;52.438;13.364;2022-07-23T08:41:38;10.73;;;5.45;;
17961;SDS011;9106;52.438;13.364;2022-07-23T08:46:42;11.95;;;4.63;;
17961;SDS011;9106;52.438;13.364;2022-07-23T08:51:46;10.85;;;4.97;;
17961;SDS011;9106;52.438;13.364;2022-07-23T08:56:48;9.60;;;4.95;;
17961;SDS011;9106;52.438;13.364;2022-07-23T09:01:52;8.73;;;4.80;;
17961;SDS011;9106;52.438;13.364;2022-07-23T09:06:55;8.85;;;4.10;;
17961;SDS011;9106;52.438;13.364;2022-07-23T09:12:02;7.47;;;4.28;;
17961;SDS011;9106;52.438;13.364;2022-07-23T09:17:13;9.63;;;4.32;;
17961;SDS011;9106;52.438;13.364;2022-07-23T09:22:17;8.38;;;4.00;;
17961;SDS011;9106;52.438;13.364;2022-07-23T09:27:44;9.63;;;4.70;;
17961;SDS011;9106;52.438;13.364;2022-07-23T09:33:05;9.57;;;4.75;;
17961;SDS011;9106;52.438;13.364;2022-07-23T09:38:08;12.18;;;4.18;;
17961;SDS011;9106;52.438;13.364;2022-07-23T09:43:11;6.65;;;4.40;;
17961;SDS011;9106;52.438;13.364;2022-07-23T09:48:16;11.45;;;5.07;;
17961;SDS011;9106;52.438;13.364;2022-07-23T09:53:23;10.73;;;4.80;;
17961;SDS011;9106;52.438;13.364;2022-07-23T09:58:26;10.10;;;5.35;;
17961;SDS011;9106;52.438;13.364;2022-07-23T10:03:30;11.93;;;4.93;;
17961;SDS011;9106;52.438;13.364;2022-07-23T10:08:33;6.97;;;4.28;;
17961;SDS011;9106;52.438;13.364;2022-07-23T10:13:36;10.13;;;4.70;;
17961;SDS011;9106;52.438;13.364;2022-07-23T10:19:07;6.40;;;4.30;;
17961;SDS011;9106;52.438;13.364;2022-07-23T10:24:13;6.53;;;4.00;;
17961;SDS011;9106;52.438;13.364;2022-07-23T10:29:22;5.85;;;4.20;;
17961;SDS011;9106;52.438;13.364;2022-07-23T10:34:34;5.80;;;3.60;;
17961;SDS011;9106;52.438;13.364;2022-07-23T10:39:40;5.65;;;3.63;;
17961;SDS011;9106;52.438;13.364;2022-07-23T10:44:43;7.57;;;3.35;;
17961;SDS011;9106;52.438;13.364;2022-07-23T10:49:48;6.97;;;3.75;;
17961;SDS011;9106;52.438;13.364;2022-07-23T10:54:52;6.95;;;3.45;;
17961;SDS011;9106;52.438;13.364;2022-07-23T11:00:14;6.50;;;3.92;;
17961;SDS011;9106;52.438;13.364;2022-07-23T11:05:20;9.77;;;3.88;;
17961;SDS011;9106;52.438;13.364;2022-07-23T11:31:38;6.00;;;3.03;;
17961;SDS011;9106;52.438;13.364;2022-07-23T11:36:53;4.75;;;3.15;;
17961;SDS011;9106;52.438;13.364;2022-07-23T11:41:57;5.45;;;3.40;;
17961;SDS011;9106;52.438;13.364;2022-07-23T11:47:02;5.95;;;3.50;;
17961;SDS011;9106;52.438;13.364;2022-07-23T11:52:06;6.38;;;3.78;;
17961;SDS011;9106;52.438;13.364;2022-07-23T11:57:09;7.65;;;3.45;;
17961;SDS011;9106;52.438;13.364;2022-07-23T12:02:14;5.25;;;3.60;;
17961;SDS011;9106;52.438;13.364;2022-07-23T12:07:26;5.60;;;3.42;;
17961;SDS011;9106;52.438;13.364;2022-07-23T12:12:34;4.85;;;3.60;;
17961;SDS011;9106;52.438;13.364;2022-07-23T12:17:41;8.45;;;3.58;;
17961;SDS011;9106;52.438;13.364;2022-07-23T12:22:51;6.25;;;3.70;;
17961;SDS011;9106;52.438;13.364;2022-07-23T12:27:58;5.25;;;3.67;;
17961;SDS011;9106;52.438;13.364;2022-07-23T12:33:03;9.52;;;3.78;;
17961;SDS011;9106;52.438;13.364;2022-07-23T12:38:07;4.60;;;3.63;;
17961;SDS011;9106;52.438;13.364;2022-07-23T12:43:11;6.05;;;4.10;;
17961;SDS011;9106;52.438;13.364;2022-07-23T12:48:25;6.55;;;4.13;;
17961;SDS011;9106;52.438;13.364;2022-07-23T12:53:30;6.95;;;4.38;;
17961;SDS011;9106;52.438;13.364;2022-07-23T12:58:40;5.28;;;3.90;;
17961;SDS011;9106;52.438;13.364;2022-07-23T13:03:53;6.85;;;4.50;;
17961;SDS011;9106;52.438;13.364;2022-07-23T13:08:58;5.97;;;4.13;;
17961;SDS011;9106;52.438;13.364;2022-07-23T13:14:03;6.70;;;4.03;;
17961;SDS011;9106;52.438;13.364;2022-07-23T13:19:10;10.57;;;4.82;;
17961;SDS011;9106;52.438;13.364;2022-07-23T13:24:15;8.30;;;4.10;;
17961;SDS011;9106;52.438;13.364;2022-07-23T13:29:17;9.00;;;3.90;;
17961;SDS011;9106;52.438;13.364;2022-07-23T13:34:22;5.50;;;3.80;;
17961;SDS011;9106;52.438;13.364;2022-07-23T13:39:24;7.38;;;4.07;;
17961;SDS011;9106;52.438;13.364;2022-07-23T13:44:32;6.03;;;3.90;;
17961;SDS011;9106;52.438;13.364;2022-07-23T13:49:41;6.75;;;3.60;;
17961;SDS011;9106;52.438;13.364;2022-07-23T13:55:22;4.78;;;3.63;;
17961;SDS011;9106;52.438;13.364;2022-07-23T14:00:28;3.97;;;3.15;;
17961;SDS011;9106;52.438;13.364;2022-07-23T14:05:55;6.00;;;3.38;;
17961;SDS011;9106;52.438;13.364;2022-07-23T14:10:58;4.72;;;3.33;;
17961;SDS011;9106;52.438;13.364;2022-07-23T14:16:01;7.18;;;3.40;;
17961;SDS011;9106;52.438;13.364;2022-07-23T14:21:13;7.20;;;3.17;;
17961;SDS011;9106;52.438;13.364;2022-07-23T14:26:16;6.60;;;3.08;;
17961;SDS011;9106;52.438;13.364;2022-07-23T14:31:19;7.18;;;3.22;;
17961;SDS011;9106;52.438;13.364;2022-07-23T14:36:29;6.32;;;3.30;;
17961;SDS011;9106;52.438;13.364;2022-07-23T14:41:32;5.80;;;2.83;;
17961;SDS011;9106;52.438;13.364;2022-07-23T14:46:35;4.40;;;2.60;;
17961;SDS011;9106;52.438;13.364;2022-07-23T14:51:39;3.67;;;2.97;;
17961;SDS011;9106;52.438;13.364;2022-07-23T15:09:02;5.93;;;2.40;;
17961;SDS011;9106;52.438;13.364;2022-07-23T15:14:07;6.53;;;2.50;;
17961;SDS011;9106;52.438;13.364;2022-07-23T15:19:10;4.30;;;2.55;;
17961;SDS011;9106;52.438;13.364;2022-07-23T15:24:14;5.57;;;2.35;;
17961;SDS011;9106;52.438;13.364;2022-07-23T15:29:17;6.80;;;2.30;;
17961;SDS011;9106;52.438;13.364;2022-07-23T15:34:22;5.25;;;2.50;;
17961;SDS011;9106;52.438;13.364;2022-07-23T15:39:26;5.00;;;2.40;;
17961;SDS011;9106;52.438;13.364;2022-07-23T15:44:29;2.92;;;2.15;;
17961;SDS011;9106;52.438;13.364;2022-07-23T15:49:32;2.35;;;1.88;;
17961;SDS011;9106;52.438;13.364;2022-07-23T16:19:03;3.25;;;2.03;;
17961;SDS011;9106;52.438;13.364;2022-07-23T16:24:06;3.95;;;1.83;;
17961;SDS011;9106;52.438;13.364;2022-07-23T16:29:15;4.25;;;1.75;;
17961;SDS011;9106;52.438;13.364;2022-07-23T16:34:30;13.43;;;2.55;;
17961;SDS011;9106;52.438;13.364;2022-07-23T16:39:41;1.83;;;1.60;;
17961;SDS011;9106;52.438;13.364;2022-07-23T16:44:45;3.40;;;1.65;;
17961;SDS011;9106;52.438;13.364;2022-07-23T16:49:49;2.60;;;1.73;;
17961;SDS011;9106;52.438;13.364;2022-07-23T16:54:52;1.90;;;1.70;;
17961;SDS011;9106;52.438;13.364;2022-07-23T16:59:55;1.85;;;1.50;;
17961;SDS011;9106;52.438;13.364;2022-07-23T17:04:59;2.13;;;1.58;;
17961;SDS011;9106;52.438;13.364;2022-07-23T17:10:02;3.60;;;1.85;;
17961;SDS011;9106;52.438;13.364;2022-07-23T17:15:08;2.33;;;1.70;;
17961;SDS011;9106;52.438;13.364;2022-07-23T17:20:13;3.08;;;1.70;;
17961;SDS011;9106;52.438;13.364;2022-07-23T17:25:17;2.65;;;1.80;;
17961;SDS011;9106;52.438;13.364;2022-07-23T17:30:20;1.98;;;1.38;;
17961;SDS011;9106;52.438;13.364;2022-07-23T17:35:24;3.90;;;1.50;;
17961;SDS011;9106;52.438;13.364;2022-07-23T17:40:27;5.75;;;1.58;;
17961;SDS011;9106;52.438;13.364;2022-07-23T17:45:30;2.53;;;1.63;;
17961;SDS011;9106;52.438;13.364;2022-07-23T17:50:34;2.92;;;1.40;;
17961;SDS011;9106;52.438;13.364;2022-07-23T17:55:37;3.78;;;1.67;;
17961;SDS011;9106;52.438;13.364;2022-07-23T18:00:42;1.58;;;1.48;;
17961;SDS011;9106;52.438;13.364;2022-07-23T18:05:46;1.73;;;1.20;;
17961;SDS011;9106;52.438;13.364;2022-07-23T18:10:49;4.13;;;1.60;;
17961;SDS011;9106;52.438;13.364;2022-07-23T18:15:54;7.10;;;1.65;;
17961;SDS011;9106;52.438;13.364;2022-07-23T18:20:58;3.95;;;1.55;;
17961;SDS011;9106;52.438;13.364;2022-07-23T18:26:01;1.60;;;1.50;;
17961;SDS011;9106;52.438;13.364;2022-07-23T18:31:15;2.53;;;1.50;;
17961;SDS011;9106;52.438;13.364;2022-07-23T18:36:20;1.90;;;1.50;;
17961;SDS011;9106;52.438;13.364;2022-07-23T18:41:24;1.90;;;1.38;;
17961;SDS011;9106;52.438;13.364;2022-07-23T18:46:27;1.90;;;1.20;;
17961;SDS011;9106;52.438;13.364;2022-07-23T18:51:32;1.40;;;1.30;;
17961;SDS011;9106;52.438;13.364;2022-07-23T18:56:35;2.35;;;1.30;;
17961;SDS011;9106;52.438;13.364;2022-07-23T19:01:37;3.65;;;1.50;;
17961;SDS011;9106;52.438;13.364;2022-07-23T19:06:42;1.98;;;1.13;;
17961;SDS011;9106;52.438;13.364;2022-07-23T19:11:45;1.63;;;1.10;;
17961;SDS011;9106;52.438;13.364;2022-07-23T19:16:48;2.78;;;1.02;;
17961;SDS011;9106;52.438;13.364;2022-07-23T19:21:53;1.33;;;1.08;;
17961;SDS011;9106;52.438;13.364;2022-07-23T19:26:55;1.67;;;1.00;;
17961;SDS011;9106;52.438;13.364;2022-07-23T19:32:02;2.95;;;1.02;;
17961;SDS011;9106;52.438;13.364;2022-07-23T19:37:06;1.67;;;1.10;;
17961;SDS011;9106;52.438;13.364;2022-07-23T19:42:13;0.80;;;0.80;;
17961;SDS011;9106;52.438;13.364;2022-07-23T19:47:15;1.27;;;1.10;;
17961;SDS011;9106;52.438;13.364;2022-07-23T19:52:19;0.95;;;0.95;;
17961;SDS011;9106;52.438;13.364;2022-07-23T19:57:22;1.90;;;1.10;;
17961;SDS011;9106;52.438;13.364;2022-07-23T20:02:26;1.63;;;1.08;;
17961;SDS011;9106;52.438;13.364;2022-07-23T20:07:30;1.02;;;0.90;;
17961;SDS011;9106;52.438;13.364;2022-07-23T20:12:33;1.52;;;0.98;;
17961;SDS011;9106;52.438;13.364;2022-07-23T20:17:36;1.50;;;1.02;;
17961;SDS011;9106;52.438;13.364;2022-07-23T20:22:40;2.00;;;1.25;;
17961;SDS011;9106;52.438;13.364;2022-07-23T20:27:45;1.60;;;1.00;;
17961;SDS011;9106;52.438;13.364;2022-07-23T20:32:48;2.38;;;0.95;;
17961;SDS011;9106;52.438;13.364;2022-07-23T20:37:52;2.03;;;0.90;;
17961;SDS011;9106;52.438;13.364;2022-07-23T20:42:55;1.10;;;0.93;;
17961;SDS011;9106;52.438;13.364;2022-07-23T20:47:59;0.98;;;0.90;;
17961;SDS011;9106;52.438;13.364;2022-07-23T20:53:11;1.58;;;0.93;;
17961;SDS011;9106;52.438;13.364;2022-07-23T20:58:40;2.45;;;1.10;;
17961;SDS011;9106;52.438;13.364;2022-07-23T21:03:46;1.33;;;0.98;;
17961;SDS011;9106;52.438;13.364;2022-07-23T21:08:56;1.80;;;1.20;;
17961;SDS011;9106;52.438;13.364;2022-07-23T21:13:58;2.10;;;1.20;;
17961;SDS011;9106;52.438;13.364;2022-07-23T21:19:01;2.42;;;1.17;;
17961;SDS011;9106;52.438;13.364;2022-07-23T21:24:07;2.90;;;1.38;;
17961;SDS011;9106;52.438;13.364;2022-07-23T21:29:09;1.55;;;1.15;;
17961;SDS011;9106;52.438;13.364;2022-07-23T21:34:12;1.92;;;1.08;;
17961;SDS011;9106;52.438;13.364;2022-07-23T21:39:29;2.03;;;1.30;;
17961;SDS011;9106;52.438;13.364;2022-07-23T21:44:36;4.80;;;1.02;;
